createdAt,value
2018-06-09T00:00:11.899Z,27.53
2018-06-09T00:02:40.381Z,26.70
2018-06-09T00:05:10.967Z,27.53
2018-06-09T00:07:40.958Z,25.60
2018-06-09T00:10:10.676Z,30.60
2018-06-09T00:12:40.008Z,26.93
2018-06-09T00:15:08.494Z,27.33
2018-06-09T00:17:38.597Z,31.97
2018-06-09T00:20:08.231Z,27.50
2018-06-09T00:22:38.075Z,26.35
2018-06-09T00:25:07.184Z,27.10
2018-06-09T00:27:37.555Z,34.70
2018-06-09T00:30:06.280Z,25.77
2018-06-09T00:32:36.806Z,33.27
2018-06-09T00:35:11.425Z,26.10
2018-06-09T00:37:43.938Z,27.93
2018-06-09T00:40:13.111Z,30.07
2018-06-09T00:42:42.220Z,29.20
2018-06-09T00:45:11.807Z,27.37
2018-06-09T00:47:40.605Z,26.05
2018-06-09T00:50:16.087Z,26.97
2018-06-09T00:52:45.941Z,30.37
2018-06-09T00:55:16.331Z,30.93
2018-06-09T00:57:46.459Z,27.73
2018-06-09T01:00:16.107Z,30.27
2018-06-09T01:02:51.001Z,28.52
2018-06-09T01:05:25.139Z,27.90
2018-06-09T01:07:59.848Z,31.17
2018-06-09T01:10:29.923Z,36.00
2018-06-09T01:12:59.634Z,28.43
2018-06-09T01:15:28.611Z,29.63
2018-06-09T01:18:01.114Z,30.30
2018-06-09T01:20:31.862Z,26.03
2018-06-09T01:23:02.654Z,27.90
2018-06-09T01:25:32.840Z,26.75
2018-06-09T01:28:03.082Z,30.90
2018-06-09T01:30:35.512Z,28.97
2018-06-09T01:33:05.053Z,29.90
2018-06-09T01:35:39.548Z,26.63
2018-06-09T01:38:09.588Z,29.53
2018-06-09T01:40:42.135Z,26.67
2018-06-09T01:43:12.284Z,28.75
2018-06-09T01:45:44.164Z,25.60
2018-06-09T01:48:14.947Z,27.73
2018-06-09T01:50:46.777Z,25.90
2018-06-09T01:53:19.588Z,27.37
2018-06-09T01:55:49.939Z,28.47
2018-06-09T01:58:22.208Z,30.87
2018-06-09T02:00:55.730Z,30.60
2018-06-09T02:03:29.076Z,26.95
2018-06-09T02:05:59.377Z,26.93
2018-06-09T02:08:29.605Z,30.80
2018-06-09T02:11:03.189Z,28.37
2018-06-09T02:13:33.213Z,28.50
2018-06-09T02:16:05.903Z,34.50
2018-06-09T02:18:35.859Z,30.80
2018-06-09T02:21:06.773Z,33.93
2018-06-09T02:23:37.280Z,33.13
2018-06-09T02:26:13.456Z,29.43
2018-06-09T02:28:43.131Z,28.30
2018-06-09T02:31:15.068Z,30.90
2018-06-09T02:33:45.908Z,31.33
2018-06-09T02:36:17.744Z,27.23
2018-06-09T02:38:47.799Z,29.23
2018-06-09T02:41:17.722Z,28.40
2018-06-09T02:43:49.884Z,27.83
2018-06-09T02:46:21.473Z,32.42
2018-06-09T02:48:52.214Z,28.00
2018-06-09T02:51:23.363Z,28.27
2018-06-09T02:53:56.363Z,33.73
2018-06-09T02:56:27.444Z,27.93
2018-06-09T02:58:58.830Z,29.82
2018-06-09T03:01:30.575Z,36.47
2018-06-09T03:04:00.153Z,28.30
2018-06-09T03:06:32.408Z,27.57
2018-06-09T03:09:02.959Z,36.13
2018-06-09T03:11:35.464Z,28.03
2018-06-09T03:14:06.121Z,28.40
2018-06-09T03:16:38.508Z,28.80
2018-06-09T03:19:12.960Z,27.97
2018-06-09T03:21:44.750Z,29.27
2018-06-09T03:24:17.476Z,29.12
2018-06-09T03:26:52.969Z,27.27
2018-06-09T03:29:22.616Z,30.17
2018-06-09T03:31:53.864Z,30.03
2018-06-09T03:34:23.886Z,28.30
2018-06-09T03:36:53.638Z,28.57
2018-06-09T03:39:26.607Z,35.27
2018-06-09T03:41:55.628Z,28.03
2018-06-09T03:44:30.920Z,32.17
2018-06-09T03:47:02.984Z,33.00
2018-06-09T03:49:36.844Z,29.87
2018-06-09T03:52:10.487Z,28.53
2018-06-09T03:54:41.839Z,28.13
2018-06-09T03:57:12.150Z,28.67
2018-06-09T03:59:43.855Z,30.10
2018-06-09T04:02:17.286Z,35.70
2018-06-09T04:04:45.914Z,27.60
2018-06-09T04:07:14.456Z,30.60
2018-06-09T04:09:43.054Z,29.03
2018-06-09T04:12:11.573Z,29.80
2018-06-09T04:14:40.032Z,31.80
2018-06-09T04:17:08.531Z,26.52
2018-06-09T04:19:37.052Z,24.80
2018-06-09T04:22:05.540Z,27.05
2018-06-09T04:24:34.008Z,25.20
2018-06-09T04:27:02.819Z,30.03
2018-06-09T04:29:31.333Z,29.20
2018-06-09T04:31:59.838Z,27.00
2018-06-09T04:34:28.435Z,26.73
2018-06-09T04:36:56.943Z,30.60
2018-06-09T04:39:25.443Z,26.07
2018-06-09T04:41:53.916Z,26.55
2018-06-09T04:44:22.497Z,27.20
2018-06-09T04:46:51.038Z,25.30
2018-06-09T04:49:19.544Z,25.62
2018-06-09T04:51:48.095Z,28.70
2018-06-09T04:54:16.611Z,26.60
2018-06-09T04:56:45.142Z,23.53
2018-06-09T04:59:13.851Z,26.02
2018-06-09T05:01:42.399Z,24.83
2018-06-09T05:04:11.968Z,23.33
2018-06-09T05:06:40.480Z,24.93
2018-06-09T05:09:09.160Z,25.10
2018-06-09T05:11:37.692Z,24.92
2018-06-09T05:14:06.232Z,27.03
2018-06-09T05:16:34.780Z,24.18
2018-06-09T05:19:04.340Z,25.90
2018-06-09T05:21:33.822Z,27.67
2018-06-09T05:24:02.355Z,24.23
2018-06-09T05:26:30.851Z,23.77
2018-06-09T05:28:59.779Z,23.70
2018-06-09T05:31:28.276Z,26.30
2018-06-09T05:33:56.750Z,25.27
2018-06-09T05:36:25.291Z,22.27
2018-06-09T05:38:53.852Z,23.45
2018-06-09T05:41:22.386Z,21.80
2018-06-09T05:43:51.088Z,27.80
2018-06-09T05:51:27.537Z,23.07
2018-06-09T05:54:00.037Z,22.87
2018-06-09T05:56:30.877Z,25.05
2018-06-09T05:58:59.533Z,23.37
2018-06-09T06:01:29.024Z,24.97
2018-06-09T06:03:58.946Z,25.83
2018-06-09T06:06:27.464Z,28.17
2018-06-09T06:08:56.139Z,25.33
2018-06-09T06:11:24.722Z,24.80
2018-06-09T06:13:53.860Z,28.90
2018-06-09T06:16:22.624Z,23.47
2018-06-09T06:18:51.249Z,28.03
2018-06-09T06:21:19.774Z,23.40
2018-06-09T06:23:48.301Z,25.92
2018-06-09T06:26:16.906Z,22.43
2018-06-09T06:28:46.209Z,28.00
2018-06-09T06:31:15.075Z,24.10
2018-06-09T06:33:43.686Z,23.55
2018-06-09T06:36:13.172Z,26.23
2018-06-09T06:38:41.822Z,26.13
2018-06-09T06:41:14.289Z,24.93
2018-06-09T06:43:43.065Z,23.90
2018-06-09T06:46:12.142Z,22.40
2018-06-09T06:48:40.838Z,24.47
2018-06-09T06:51:09.451Z,22.73
2018-06-09T06:53:38.890Z,25.57
2018-06-09T06:56:07.473Z,23.47
2018-06-09T06:58:36.124Z,22.03
2018-06-09T07:01:04.899Z,23.90
2018-06-09T07:03:34.120Z,19.20
2018-06-09T07:06:03.719Z,20.57
2018-06-09T07:08:32.363Z,21.40
2018-06-09T07:11:00.892Z,23.07
2018-06-09T07:13:30.357Z,22.85
2018-06-09T07:15:58.962Z,22.20
2018-06-09T07:18:27.690Z,24.03
2018-06-09T07:20:57.164Z,23.10
2018-06-09T07:23:26.757Z,20.53
2018-06-09T07:25:55.372Z,20.73
2018-06-09T07:28:23.905Z,20.87
2018-06-09T07:30:52.471Z,20.05
2018-06-09T07:33:20.946Z,20.40
2018-06-09T07:35:49.552Z,19.50
2018-06-09T07:38:18.108Z,19.10
2018-06-09T07:40:48.053Z,22.23
2018-06-09T07:43:17.575Z,21.43
2018-06-09T07:45:46.411Z,19.98
2018-06-09T07:48:14.956Z,19.80
2018-06-09T07:50:43.807Z,17.53
2018-06-09T07:53:12.336Z,19.50
2018-06-09T07:55:40.889Z,17.37
2018-06-09T07:58:09.359Z,18.90
2018-06-09T08:00:37.912Z,20.83
2018-06-09T08:03:06.452Z,19.60
2018-06-09T08:05:36.040Z,21.03
2018-06-09T08:11:23.439Z,20.43
2018-06-09T08:13:51.934Z,20.68
2018-06-09T08:16:20.616Z,18.10
2018-06-09T08:18:49.187Z,20.57
2018-06-09T08:21:17.796Z,18.70
2018-06-09T08:23:46.813Z,18.93
2018-06-09T08:26:15.337Z,18.87
2018-06-09T08:28:43.849Z,20.10
2018-06-09T08:31:13.398Z,16.53
2018-06-09T08:33:42.560Z,18.45
2018-06-09T08:36:11.644Z,17.07
2018-06-09T08:38:40.101Z,16.50
2018-06-09T08:41:08.759Z,18.48
2018-06-09T08:43:37.381Z,21.30
2018-06-09T08:46:06.728Z,18.73
2018-06-09T08:48:35.576Z,15.63
2018-06-09T08:51:04.833Z,17.50
2018-06-09T08:53:34.410Z,17.07
2018-06-09T08:56:04.208Z,21.25
2018-06-09T08:58:36.505Z,17.20
2018-06-09T09:01:06.858Z,17.53
2018-06-09T09:03:35.731Z,16.37
2018-06-09T09:06:04.710Z,19.10
2018-06-09T09:08:33.939Z,18.15
2018-06-09T09:11:02.675Z,18.00
2018-06-09T09:13:31.377Z,17.30
2018-06-09T09:16:00.018Z,17.67
2018-06-09T09:18:28.773Z,21.03
2018-06-09T09:20:57.627Z,17.60
2018-06-09T09:23:26.275Z,20.03
2018-06-09T09:25:54.932Z,18.60
2018-06-09T09:28:23.530Z,20.40
2018-06-09T09:30:52.060Z,18.92
2018-06-09T09:33:21.095Z,19.33
2018-06-09T09:35:49.632Z,19.67
2018-06-09T09:38:17.839Z,23.60
2018-06-09T09:40:46.465Z,19.87
2018-06-09T09:43:15.197Z,19.70
2018-06-09T09:45:43.748Z,18.00
2018-06-09T09:48:12.377Z,20.00
2018-06-09T09:50:40.942Z,21.37
2018-06-09T09:53:09.509Z,18.90
2018-06-09T09:55:38.253Z,19.53
2018-06-09T09:58:07.057Z,16.20
2018-06-09T10:00:39.961Z,18.23
2018-06-09T10:03:08.825Z,17.83
2018-06-09T10:05:37.567Z,17.33
2018-06-09T10:08:06.553Z,20.50
2018-06-09T10:10:35.256Z,18.53
2018-06-09T10:13:04.749Z,18.70
2018-06-09T10:15:39.462Z,18.70
2018-06-09T10:18:16.436Z,15.23
2018-06-09T10:20:46.056Z,19.93
2018-06-09T10:23:15.288Z,17.93
2018-06-09T10:25:43.995Z,18.10
2018-06-09T10:28:12.613Z,20.73
2018-06-09T10:30:41.590Z,18.57
2018-06-09T10:36:02.868Z,16.30
2018-06-09T10:38:35.770Z,16.90
2018-06-09T10:41:05.257Z,15.27
2018-06-09T10:43:39.785Z,16.35
2018-06-09T10:46:21.483Z,15.40
2018-06-09T10:48:50.697Z,15.60
2018-06-09T10:51:19.519Z,15.60
2018-06-09T10:53:48.105Z,15.72
2018-06-09T10:56:17.161Z,14.87
2018-06-09T10:58:45.738Z,16.95
2018-06-09T11:01:14.360Z,19.50
2018-06-09T11:03:42.917Z,18.23
2018-06-09T11:06:11.887Z,13.20
2018-06-09T11:08:40.592Z,16.80
2018-06-09T11:11:09.143Z,13.83
2018-06-09T11:13:37.679Z,16.30
2018-06-09T11:16:06.221Z,13.70
2018-06-09T11:18:34.793Z,14.03
2018-06-09T11:21:03.291Z,14.10
2018-06-09T11:23:31.816Z,14.80
2018-06-09T11:26:00.300Z,15.33
2018-06-09T11:28:29.254Z,14.27
2018-06-09T11:30:57.719Z,12.70
2018-06-09T11:33:26.560Z,13.07
2018-06-09T11:35:55.091Z,12.93
2018-06-09T11:38:25.037Z,13.30
2018-06-09T12:14:21.059Z,10.67
2018-06-09T12:17:02.630Z,11.60
2018-06-09T12:19:37.532Z,10.93
2018-06-09T12:26:11.097Z,10.40
2018-06-09T12:29:13.575Z,10.18
2018-06-09T12:58:22.534Z,9.53
2018-06-09T13:10:42.044Z,8.43
2018-06-09T13:16:27.034Z,9.80
2018-06-09T13:26:01.365Z,8.87
2018-06-09T13:37:50.344Z,7.20
2018-06-09T15:45:02.525Z,12.13
2018-06-09T15:47:31.199Z,11.70
2018-06-09T15:49:59.797Z,35.53
2018-06-09T15:52:28.292Z,20.27
2018-06-09T15:54:56.759Z,15.07
2018-06-09T15:57:27.478Z,12.97
2018-06-09T15:59:58.069Z,18.03
2018-06-09T16:02:27.191Z,13.70
2018-06-09T16:04:55.705Z,10.93
2018-06-09T16:07:24.946Z,11.70
2018-06-09T16:09:53.917Z,11.40
2018-06-09T16:12:23.470Z,9.75
2018-06-09T16:14:53.674Z,9.97
2018-06-09T16:17:23.870Z,9.20
2018-06-09T16:19:56.247Z,8.60
2018-06-09T16:49:53.678Z,6.80
2018-06-09T16:52:31.152Z,7.70
2018-06-09T16:55:07.497Z,7.95
2018-06-09T16:57:56.593Z,8.17
2018-06-09T17:00:35.563Z,7.33
2018-06-09T17:03:20.105Z,6.97
2018-06-09T17:09:02.922Z,6.30
2018-06-09T17:15:18.447Z,8.85
2018-06-09T17:24:39.359Z,6.37
2018-06-09T17:27:31.398Z,6.87
2018-06-09T17:30:31.218Z,7.13
2018-06-09T17:36:18.552Z,8.38
2018-06-09T17:38:59.607Z,7.12
2018-06-09T17:41:44.028Z,7.80
2018-06-09T17:44:14.672Z,8.40
2018-06-09T17:46:44.906Z,8.17
2018-06-09T17:49:14.103Z,6.97
2018-06-09T17:51:42.705Z,10.37
2018-06-09T17:54:11.697Z,9.80
2018-06-09T17:56:40.509Z,9.50
2018-06-09T17:59:10.614Z,11.05
2018-06-09T18:01:40.188Z,11.73
2018-06-09T18:04:09.275Z,35.37
2018-06-09T18:06:39.279Z,14.03
2018-06-09T18:09:10.340Z,12.70
2018-06-09T18:11:39.286Z,14.23
2018-06-09T18:14:10.141Z,12.00
2018-06-09T18:16:41.417Z,11.48
2018-06-09T18:19:10.383Z,11.53
2018-06-09T18:21:39.453Z,12.23
2018-06-09T18:24:08.644Z,12.20
2018-06-09T18:26:37.549Z,13.27
2018-06-09T18:29:06.296Z,16.33
2018-06-09T18:31:36.506Z,11.90
2018-06-09T18:34:18.274Z,12.75
2018-06-09T18:36:48.864Z,15.00
2018-06-09T18:39:19.664Z,13.90
2018-06-09T18:41:51.405Z,12.30
2018-06-09T18:44:21.526Z,12.50
2018-06-09T18:46:52.938Z,11.73
2018-06-09T18:49:22.963Z,13.80
2018-06-09T18:51:51.650Z,14.50
2018-06-09T18:54:20.398Z,18.30
2018-06-09T18:56:49.161Z,13.03
2018-06-09T18:59:24.977Z,16.00
2018-06-09T19:02:04.021Z,16.20
2018-06-09T19:04:36.764Z,15.57
2018-06-09T19:07:07.541Z,13.53
2018-06-09T19:09:36.825Z,13.13
2018-06-09T19:12:06.548Z,19.17
2018-06-09T19:14:35.726Z,16.30
2018-06-09T19:17:05.100Z,12.87
2018-06-09T19:19:34.380Z,10.40
2018-06-09T19:22:03.924Z,11.55
2018-06-09T19:24:32.891Z,10.57
2018-06-09T19:27:02.740Z,10.37
2018-06-09T19:29:43.784Z,10.30
2018-06-09T19:32:20.135Z,9.58
2018-06-09T19:34:56.480Z,10.08
2018-06-09T19:37:27.031Z,9.20
2018-06-09T19:40:12.059Z,10.28
2018-06-09T19:43:03.996Z,8.40
2018-06-09T19:47:24.682Z,9.73
2018-06-09T19:55:42.216Z,9.77
2018-06-09T19:58:13.749Z,9.78
2018-06-09T20:00:42.400Z,10.87
2018-06-09T20:03:12.218Z,10.30
2018-06-09T20:05:44.526Z,12.40
2018-06-09T20:08:15.670Z,12.93
2018-06-09T20:10:44.539Z,11.00
2018-06-09T20:13:14.282Z,9.47
2018-06-09T20:15:47.387Z,12.87
2018-06-09T20:18:17.003Z,10.50
2018-06-09T20:20:45.749Z,10.65
2018-06-09T20:23:15.767Z,10.80
2018-06-09T20:25:45.299Z,9.93
2018-06-09T20:28:14.146Z,10.60
2018-06-09T20:30:46.898Z,9.83
2018-06-09T20:33:15.790Z,9.83
2018-06-09T20:35:44.345Z,10.87
2018-06-09T20:38:13.499Z,11.13
2018-06-09T20:40:42.565Z,11.27
2018-06-09T20:43:12.185Z,11.37
2018-06-09T20:45:43.683Z,10.32
2018-06-09T20:48:12.432Z,11.77
2018-06-09T20:50:41.045Z,12.43
2018-06-09T20:53:09.640Z,9.55
2018-06-09T20:55:38.424Z,10.50
2018-06-09T20:58:07.755Z,11.00
2018-06-09T21:00:37.459Z,11.27
2018-06-09T21:03:08.882Z,8.60
2018-06-09T21:05:39.040Z,11.30
2018-06-09T21:08:08.304Z,10.70
2018-06-09T21:10:38.036Z,8.90
2018-06-09T21:13:09.306Z,9.53
2018-06-09T21:15:38.068Z,9.87
2018-06-09T21:18:06.564Z,9.53
2018-06-09T21:20:35.068Z,10.37
2018-06-09T21:23:03.895Z,11.00
2018-06-09T21:25:33.612Z,10.40
2018-06-09T21:30:15.825Z,11.70
2018-06-09T21:32:47.582Z,16.23
2018-06-09T21:35:33.358Z,12.10
2018-06-09T21:38:18.125Z,12.77
2018-06-09T21:40:47.953Z,13.10
2018-06-09T21:43:22.348Z,14.13
2018-06-09T21:45:52.684Z,13.03
2018-06-09T21:48:24.677Z,12.40
2018-06-09T21:51:31.797Z,13.58
2018-06-09T21:54:04.570Z,13.77
2018-06-09T21:57:09.942Z,13.98
2018-06-09T22:00:06.789Z,14.57
2018-06-09T22:02:48.224Z,14.13
2018-06-09T22:11:03.196Z,14.03
2018-06-09T22:13:32.658Z,15.30
2018-06-09T22:16:01.690Z,16.83
2018-06-09T22:18:31.131Z,14.70
2018-06-09T22:21:01.001Z,14.38
2018-06-09T22:23:30.358Z,16.37
2018-06-09T22:26:00.290Z,15.13
2018-06-09T22:28:31.448Z,16.07
2018-06-09T22:31:03.552Z,17.00
2018-06-09T22:36:09.984Z,14.53
2018-06-09T22:38:38.549Z,18.60
2018-06-09T22:41:09.009Z,16.27
2018-06-09T22:43:41.167Z,15.88
2018-06-09T22:46:10.611Z,16.33
2018-06-09T22:48:39.906Z,19.20
2018-06-09T22:51:13.912Z,20.63
2018-06-09T22:53:44.840Z,18.93
2018-06-09T22:56:16.923Z,18.00
2018-06-09T22:58:48.023Z,17.53
2018-06-09T23:01:17.053Z,16.80
2018-06-09T23:03:47.727Z,15.93
2018-06-09T23:06:17.067Z,16.20
2018-06-09T23:08:47.046Z,17.00
2018-06-09T23:11:17.671Z,17.40
2018-06-09T23:13:46.218Z,16.20
2018-06-09T23:16:14.762Z,17.30
2018-06-09T23:18:43.363Z,16.10
2018-06-09T23:21:12.491Z,16.40
2018-06-09T23:23:42.416Z,18.25
2018-06-09T23:26:11.073Z,18.17
2018-06-09T23:28:47.266Z,15.23
2018-06-09T23:31:18.995Z,16.30
2018-06-09T23:33:47.906Z,17.73
2018-06-09T23:36:16.612Z,15.73
2018-06-09T23:38:58.766Z,16.77
2018-06-09T23:44:30.387Z,22.53
2018-06-09T23:46:58.978Z,17.27
2018-06-09T23:49:27.624Z,17.07
2018-06-09T23:51:58.725Z,18.10
2018-06-09T23:54:32.618Z,17.63
2018-06-09T23:57:01.261Z,23.13
2018-06-09T23:59:32.429Z,17.77
